sensor_id;sensor_type;location;lat;lon;timestamp;temperature;humidity
71175;DHT22;58876;51.994;4.472;2022-11-20T00:00:06;0.78;72.99
71175;DHT22;58876;51.994;4.472;2022-11-20T00:02:32;0.78;73.07
71175;DHT22;58876;51.994;4.472;2022-11-20T00:04:57;0.74;73.30
71175;DHT22;58876;51.994;4.472;2022-11-20T00:07:26;0.70;73.12
71175;DHT22;58876;51.994;4.472;2022-11-20T00:09:51;0.73;73.35
71175;DHT22;58876;51.994;4.472;2022-11-20T00:12:17;0.71;73.57
71175;DHT22;58876;51.994;4.472;2022-11-20T00:14:42;0.61;73.67
71175;DHT22;58876;51.994;4.472;2022-11-20T00:17:07;0.66;73.68
71175;DHT22;58876;51.994;4.472;2022-11-20T00:19:33;0.63;73.74
71175;DHT22;58876;51.994;4.472;2022-11-20T00:21:58;0.67;73.90
71175;DHT22;58876;51.994;4.472;2022-11-20T00:24:24;0.67;73.78
71175;DHT22;58876;51.994;4.472;2022-11-20T00:26:49;0.60;74.06
71175;DHT22;58876;51.994;4.472;2022-11-20T00:29:14;0.57;74.33
71175;DHT22;58876;51.994;4.472;2022-11-20T00:31:40;0.56;74.46
71175;DHT22;58876;51.994;4.472;2022-11-20T00:34:05;0.52;74.71
71175;DHT22;58876;51.994;4.472;2022-11-20T00:36:33;0.56;74.61
71175;DHT22;58876;51.994;4.472;2022-11-20T00:38:59;0.50;74.36
71175;DHT22;58876;51.994;4.472;2022-11-20T00:41:27;0.43;74.59
71175;DHT22;58876;51.994;4.472;2022-11-20T00:43:54;0.46;74.68
71175;DHT22;58876;51.994;4.472;2022-11-20T00:46:22;0.59;74.53
71175;DHT22;58876;51.994;4.472;2022-11-20T00:48:49;0.57;74.40
71175;DHT22;58876;51.994;4.472;2022-11-20T00:51:17;0.50;74.21
71175;DHT22;58876;51.994;4.472;2022-11-20T00:53:44;0.43;74.26
71175;DHT22;58876;51.994;4.472;2022-11-20T00:56:12;0.54;73.99
71175;DHT22;58876;51.994;4.472;2022-11-20T00:58:40;0.60;73.89
71175;DHT22;58876;51.994;4.472;2022-11-20T01:03:39;0.43;74.20
71175;DHT22;58876;51.994;4.472;2022-11-20T01:06:09;0.38;74.33
71175;DHT22;58876;51.994;4.472;2022-11-20T01:08:36;0.33;74.40
71175;DHT22;58876;51.994;4.472;2022-11-20T01:11:08;0.32;74.36
71175;DHT22;58876;51.994;4.472;2022-11-20T01:13:34;0.40;74.38
71175;DHT22;58876;51.994;4.472;2022-11-20T01:16:05;0.43;74.54
71175;DHT22;58876;51.994;4.472;2022-11-20T01:18:31;0.47;73.81
71175;DHT22;58876;51.994;4.472;2022-11-20T01:21:01;0.47;73.65
71175;DHT22;58876;51.994;4.472;2022-11-20T01:23:31;0.49;73.59
71175;DHT22;58876;51.994;4.472;2022-11-20T01:25:59;0.50;73.78
71175;DHT22;58876;51.994;4.472;2022-11-20T01:28:24;0.45;73.78
71175;DHT22;58876;51.994;4.472;2022-11-20T01:30:49;0.46;73.79
71175;DHT22;58876;51.994;4.472;2022-11-20T01:33:15;0.47;73.72
71175;DHT22;58876;51.994;4.472;2022-11-20T01:35:40;0.39;74.23
71175;DHT22;58876;51.994;4.472;2022-11-20T01:38:06;0.35;74.47
71175;DHT22;58876;51.994;4.472;2022-11-20T01:40:31;0.28;74.44
71175;DHT22;58876;51.994;4.472;2022-11-20T01:43:13;0.19;74.24
71175;DHT22;58876;51.994;4.472;2022-11-20T01:51:32;0.12;74.78
71175;DHT22;58876;51.994;4.472;2022-11-20T01:54:04;0.06;74.96
71175;DHT22;58876;51.994;4.472;2022-11-20T01:56:36;0.01;74.97
71175;DHT22;58876;51.994;4.472;2022-11-20T01:59:06;-0.06;74.92
71175;DHT22;58876;51.994;4.472;2022-11-20T02:01:33;-0.02;75.25
71175;DHT22;58876;51.994;4.472;2022-11-20T02:04:01;0.02;75.44
71175;DHT22;58876;51.994;4.472;2022-11-20T02:06:39;0.02;75.42
71175;DHT22;58876;51.994;4.472;2022-11-20T02:09:06;0.05;75.56
71175;DHT22;58876;51.994;4.472;2022-11-20T02:11:31;0.05;75.22
71175;DHT22;58876;51.994;4.472;2022-11-20T02:13:58;-0.03;75.34
71175;DHT22;58876;51.994;4.472;2022-11-20T02:16:27;0.06;75.40
71175;DHT22;58876;51.994;4.472;2022-11-20T02:18:55;0.06;75.00
71175;DHT22;58876;51.994;4.472;2022-11-20T02:21:45;-0.02;75.14
71175;DHT22;58876;51.994;4.472;2022-11-20T02:24:14;-0.03;75.09
71175;DHT22;58876;51.994;4.472;2022-11-20T02:26:47;-0.03;75.24
71175;DHT22;58876;51.994;4.472;2022-11-20T02:29:19;-0.06;75.21
71175;DHT22;58876;51.994;4.472;2022-11-20T02:31:51;-0.11;75.33
71175;DHT22;58876;51.994;4.472;2022-11-20T02:34:17;-0.08;75.32
71175;DHT22;58876;51.994;4.472;2022-11-20T02:36:44;-0.09;75.64
71175;DHT22;58876;51.994;4.472;2022-11-20T02:39:13;-0.05;75.06
71175;DHT22;58876;51.994;4.472;2022-11-20T02:41:42;-0.05;75.24
71175;DHT22;58876;51.994;4.472;2022-11-20T02:44:08;0.02;75.48
71175;DHT22;58876;51.994;4.472;2022-11-20T02:46:34;0.05;75.36
71175;DHT22;58876;51.994;4.472;2022-11-20T02:49:01;0.06;75.48
71175;DHT22;58876;51.994;4.472;2022-11-20T02:51:27;0.09;75.67
71175;DHT22;58876;51.994;4.472;2022-11-20T02:53:53;0.10;75.37
71175;DHT22;58876;51.994;4.472;2022-11-20T02:56:18;0.12;75.29
71175;DHT22;58876;51.994;4.472;2022-11-20T02:58:44;0.10;75.37
71175;DHT22;58876;51.994;4.472;2022-11-20T03:01:09;0.08;75.62
71175;DHT22;58876;51.994;4.472;2022-11-20T03:03:35;-0.01;75.48
71175;DHT22;58876;51.994;4.472;2022-11-20T03:06:01;-0.03;75.33
71175;DHT22;58876;51.994;4.472;2022-11-20T03:08:26;0.05;75.13
71175;DHT22;58876;51.994;4.472;2022-11-20T03:10:52;0.09;74.93
71175;DHT22;58876;51.994;4.472;2022-11-20T03:13:17;0.05;75.21
71175;DHT22;58876;51.994;4.472;2022-11-20T03:15:43;0.06;75.24
71175;DHT22;58876;51.994;4.472;2022-11-20T03:18:08;-0.03;74.87
71175;DHT22;58876;51.994;4.472;2022-11-20T03:20:34;-0.06;75.13
71175;DHT22;58876;51.994;4.472;2022-11-20T03:23:00;-0.05;74.90
71175;DHT22;58876;51.994;4.472;2022-11-20T03:25:26;0.06;74.75
71175;DHT22;58876;51.994;4.472;2022-11-20T03:27:51;0.02;74.85
71175;DHT22;58876;51.994;4.472;2022-11-20T03:30:17;0.08;75.03
71175;DHT22;58876;51.994;4.472;2022-11-20T03:32:42;0.05;75.12
71175;DHT22;58876;51.994;4.472;2022-11-20T03:35:08;0.01;75.29
71175;DHT22;58876;51.994;4.472;2022-11-20T03:37:34;-0.01;75.38
71175;DHT22;58876;51.994;4.472;2022-11-20T03:39:59;-0.02;75.25
71175;DHT22;58876;51.994;4.472;2022-11-20T03:42:25;-0.13;75.36
71175;DHT22;58876;51.994;4.472;2022-11-20T03:45:09;-0.13;75.75
71175;DHT22;58876;51.994;4.472;2022-11-20T03:47:34;-0.08;75.51
71175;DHT22;58876;51.994;4.472;2022-11-20T03:49:59;-0.19;75.53
71175;DHT22;58876;51.994;4.472;2022-11-20T03:52:25;-0.19;75.89
71175;DHT22;58876;51.994;4.472;2022-11-20T03:54:50;-0.30;76.09
71175;DHT22;58876;51.994;4.472;2022-11-20T03:57:16;-0.28;76.35
71175;DHT22;58876;51.994;4.472;2022-11-20T03:59:41;-0.19;76.49
71175;DHT22;58876;51.994;4.472;2022-11-20T04:02:07;-0.16;76.41
71175;DHT22;58876;51.994;4.472;2022-11-20T04:04:32;-0.05;76.45
71175;DHT22;58876;51.994;4.472;2022-11-20T04:06:58;-0.09;76.34
71175;DHT22;58876;51.994;4.472;2022-11-20T04:09:26;-0.06;76.25
71175;DHT22;58876;51.994;4.472;2022-11-20T04:11:51;-0.23;75.97
71175;DHT22;58876;51.994;4.472;2022-11-20T04:14:17;-0.13;76.24
71175;DHT22;58876;51.994;4.472;2022-11-20T04:16:43;-0.19;76.27
71175;DHT22;58876;51.994;4.472;2022-11-20T04:19:14;-0.16;76.20
71175;DHT22;58876;51.994;4.472;2022-11-20T04:21:41;-0.22;76.41
71175;DHT22;58876;51.994;4.472;2022-11-20T04:24:07;-0.23;76.40
71175;DHT22;58876;51.994;4.472;2022-11-20T04:26:34;-0.23;76.46
71175;DHT22;58876;51.994;4.472;2022-11-20T04:29:00;-0.22;76.30
71175;DHT22;58876;51.994;4.472;2022-11-20T04:31:31;-0.22;76.32
71175;DHT22;58876;51.994;4.472;2022-11-20T04:34:02;-0.25;76.31
71175;DHT22;58876;51.994;4.472;2022-11-20T04:36:29;-0.26;76.29
71175;DHT22;58876;51.994;4.472;2022-11-20T04:38:59;-0.22;76.37
71175;DHT22;58876;51.994;4.472;2022-11-20T04:41:31;-0.18;76.25
71175;DHT22;58876;51.994;4.472;2022-11-20T04:43:59;-0.29;76.19
71175;DHT22;58876;51.994;4.472;2022-11-20T04:46:28;-0.28;76.42
71175;DHT22;58876;51.994;4.472;2022-11-20T04:48:54;-0.36;76.06
71175;DHT22;58876;51.994;4.472;2022-11-20T04:51:20;-0.36;76.41
71175;DHT22;58876;51.994;4.472;2022-11-20T04:53:45;-0.33;76.35
71175;DHT22;58876;51.994;4.472;2022-11-20T04:56:12;-0.33;76.36
71175;DHT22;58876;51.994;4.472;2022-11-20T04:58:38;-0.44;76.13
71175;DHT22;58876;51.994;4.472;2022-11-20T05:01:16;-0.42;76.42
71175;DHT22;58876;51.994;4.472;2022-11-20T05:03:42;-0.34;76.73
71175;DHT22;58876;51.994;4.472;2022-11-20T05:06:10;-0.39;76.76
71175;DHT22;58876;51.994;4.472;2022-11-20T05:08:36;-0.39;76.71
71175;DHT22;58876;51.994;4.472;2022-11-20T05:11:11;-0.42;76.73
71175;DHT22;58876;51.994;4.472;2022-11-20T05:13:37;-0.46;76.87
71175;DHT22;58876;51.994;4.472;2022-11-20T05:16:09;-0.49;76.62
71175;DHT22;58876;51.994;4.472;2022-11-20T05:18:36;-0.49;76.76
71175;DHT22;58876;51.994;4.472;2022-11-20T05:21:03;-0.49;77.06
71175;DHT22;58876;51.994;4.472;2022-11-20T05:23:31;-0.50;77.16
71175;DHT22;58876;51.994;4.472;2022-11-20T05:25:57;-0.48;77.16
71175;DHT22;58876;51.994;4.472;2022-11-20T05:28:24;-0.34;77.31
71175;DHT22;58876;51.994;4.472;2022-11-20T05:30:50;-0.28;77.59
71175;DHT22;58876;51.994;4.472;2022-11-20T05:33:16;-0.16;77.33
71175;DHT22;58876;51.994;4.472;2022-11-20T05:35:43;-0.18;77.19
71175;DHT22;58876;51.994;4.472;2022-11-20T05:38:08;-0.28;77.04
71175;DHT22;58876;51.994;4.472;2022-11-20T05:40:34;-0.34;77.14
71175;DHT22;58876;51.994;4.472;2022-11-20T05:43:00;-0.37;77.31
71175;DHT22;58876;51.994;4.472;2022-11-20T05:45:27;-0.40;77.17
71175;DHT22;58876;51.994;4.472;2022-11-20T05:47:52;-0.30;77.36
71175;DHT22;58876;51.994;4.472;2022-11-20T05:50:18;-0.39;77.37
71175;DHT22;58876;51.994;4.472;2022-11-20T05:52:44;-0.37;77.52
71175;DHT22;58876;51.994;4.472;2022-11-20T05:55:09;-0.37;77.54
71175;DHT22;58876;51.994;4.472;2022-11-20T05:57:35;-0.23;77.82
71175;DHT22;58876;51.994;4.472;2022-11-20T06:00:02;-0.18;77.57
71175;DHT22;58876;51.994;4.472;2022-11-20T06:02:28;-0.18;77.73
71175;DHT22;58876;51.994;4.472;2022-11-20T06:04:53;-0.16;77.50
71175;DHT22;58876;51.994;4.472;2022-11-20T06:07:19;-0.12;77.70
71175;DHT22;58876;51.994;4.472;2022-11-20T06:09:44;-0.13;77.57
71175;DHT22;58876;51.994;4.472;2022-11-20T06:12:09;-0.18;77.85
71175;DHT22;58876;51.994;4.472;2022-11-20T06:14:35;-0.15;77.87
71175;DHT22;58876;51.994;4.472;2022-11-20T06:17:00;-0.13;77.87
71175;DHT22;58876;51.994;4.472;2022-11-20T06:19:26;0.01;77.89
71175;DHT22;58876;51.994;4.472;2022-11-20T06:21:51;-0.05;77.67
71175;DHT22;58876;51.994;4.472;2022-11-20T06:24:17;-0.05;77.91
71175;DHT22;58876;51.994;4.472;2022-11-20T06:26:44;-0.03;77.78
71175;DHT22;58876;51.994;4.472;2022-11-20T06:29:10;-0.02;77.79
71175;DHT22;58876;51.994;4.472;2022-11-20T06:31:35;-0.02;77.79
71175;DHT22;58876;51.994;4.472;2022-11-20T06:34:04;-0.05;78.30
71175;DHT22;58876;51.994;4.472;2022-11-20T06:36:30;-0.01;78.34
71175;DHT22;58876;51.994;4.472;2022-11-20T06:38:56;0.06;78.34
71175;DHT22;58876;51.994;4.472;2022-11-20T06:41:22;0.15;78.40
71175;DHT22;58876;51.994;4.472;2022-11-20T06:43:47;0.19;78.34
71175;DHT22;58876;51.994;4.472;2022-11-20T06:46:14;0.30;78.36
71175;DHT22;58876;51.994;4.472;2022-11-20T06:48:43;0.39;78.23
71175;DHT22;58876;51.994;4.472;2022-11-20T06:51:08;0.49;78.10
71175;DHT22;58876;51.994;4.472;2022-11-20T06:53:35;0.53;78.27
71175;DHT22;58876;51.994;4.472;2022-11-20T06:56:00;0.59;78.15
71175;DHT22;58876;51.994;4.472;2022-11-20T06:58:28;0.63;78.11
71175;DHT22;58876;51.994;4.472;2022-11-20T07:01:02;0.70;78.23
71175;DHT22;58876;51.994;4.472;2022-11-20T07:03:28;0.80;77.97
71175;DHT22;58876;51.994;4.472;2022-11-20T07:05:55;0.91;77.63
71175;DHT22;58876;51.994;4.472;2022-11-20T07:08:21;1.01;77.28
71175;DHT22;58876;51.994;4.472;2022-11-20T07:10:47;0.92;77.27
71175;DHT22;58876;51.994;4.472;2022-11-20T07:13:12;0.99;77.12
71175;DHT22;58876;51.994;4.472;2022-11-20T07:15:37;0.95;77.07
71175;DHT22;58876;51.994;4.472;2022-11-20T07:18:03;0.95;77.06
71175;DHT22;58876;51.994;4.472;2022-11-20T07:20:28;1.02;77.14
71175;DHT22;58876;51.994;4.472;2022-11-20T07:22:55;1.04;77.44
71175;DHT22;58876;51.994;4.472;2022-11-20T07:25:26;1.12;77.03
71175;DHT22;58876;51.994;4.472;2022-11-20T07:27:51;1.17;76.63
71175;DHT22;58876;51.994;4.472;2022-11-20T07:30:17;1.17;76.74
71175;DHT22;58876;51.994;4.472;2022-11-20T07:32:47;1.18;76.86
71175;DHT22;58876;51.994;4.472;2022-11-20T07:35:13;1.18;76.86
71175;DHT22;58876;51.994;4.472;2022-11-20T07:37:38;1.17;77.08
71175;DHT22;58876;51.994;4.472;2022-11-20T07:40:04;1.15;77.09
71175;DHT22;58876;51.994;4.472;2022-11-20T07:42:29;1.07;77.62
71175;DHT22;58876;51.994;4.472;2022-11-20T07:44:55;1.02;78.20
71175;DHT22;58876;51.994;4.472;2022-11-20T07:47:20;1.01;78.55
71175;DHT22;58876;51.994;4.472;2022-11-20T07:49:46;1.07;78.57
71175;DHT22;58876;51.994;4.472;2022-11-20T07:52:11;1.14;78.66
71175;DHT22;58876;51.994;4.472;2022-11-20T07:54:37;1.17;78.60
71175;DHT22;58876;51.994;4.472;2022-11-20T07:57:02;1.17;79.06
71175;DHT22;58876;51.994;4.472;2022-11-20T07:59:28;1.24;79.07
71175;DHT22;58876;51.994;4.472;2022-11-20T08:01:53;1.35;79.04
71175;DHT22;58876;51.994;4.472;2022-11-20T08:04:19;1.45;78.54
71175;DHT22;58876;51.994;4.472;2022-11-20T08:06:45;1.48;78.52
71175;DHT22;58876;51.994;4.472;2022-11-20T08:09:10;1.62;78.63
71175;DHT22;58876;51.994;4.472;2022-11-20T08:11:36;1.74;78.22
71175;DHT22;58876;51.994;4.472;2022-11-20T08:14:20;1.83;77.93
71175;DHT22;58876;51.994;4.472;2022-11-20T08:16:47;1.91;77.81
71175;DHT22;58876;51.994;4.472;2022-11-20T08:19:16;2.00;77.50
71175;DHT22;58876;51.994;4.472;2022-11-20T08:21:42;2.06;77.26
71175;DHT22;58876;51.994;4.472;2022-11-20T08:24:09;2.08;77.36
71175;DHT22;58876;51.994;4.472;2022-11-20T08:26:36;2.15;77.43
71175;DHT22;58876;51.994;4.472;2022-11-20T08:29:03;2.24;77.10
71175;DHT22;58876;51.994;4.472;2022-11-20T08:31:29;2.22;77.20
71175;DHT22;58876;51.994;4.472;2022-11-20T08:33:55;2.28;77.30
71175;DHT22;58876;51.994;4.472;2022-11-20T08:36:22;2.41;77.07
71175;DHT22;58876;51.994;4.472;2022-11-20T08:38:50;2.50;76.51
71175;DHT22;58876;51.994;4.472;2022-11-20T08:41:16;2.53;76.56
71175;DHT22;58876;51.994;4.472;2022-11-20T08:43:58;2.56;76.43
71175;DHT22;58876;51.994;4.472;2022-11-20T08:46:26;2.53;76.87
71175;DHT22;58876;51.994;4.472;2022-11-20T08:48:53;2.68;76.73
71175;DHT22;58876;51.994;4.472;2022-11-20T08:51:19;2.75;76.38
71175;DHT22;58876;51.994;4.472;2022-11-20T08:53:46;2.72;76.30
71175;DHT22;58876;51.994;4.472;2022-11-20T08:56:14;2.79;76.25
71175;DHT22;58876;51.994;4.472;2022-11-20T08:58:40;2.80;76.49
71175;DHT22;58876;51.994;4.472;2022-11-20T09:01:05;2.85;76.55
71175;DHT22;58876;51.994;4.472;2022-11-20T09:03:31;2.92;76.39
71175;DHT22;58876;51.994;4.472;2022-11-20T09:05:58;2.93;76.38
71175;DHT22;58876;51.994;4.472;2022-11-20T09:08:24;2.96;76.35
71175;DHT22;58876;51.994;4.472;2022-11-20T09:10:53;2.99;76.64
71175;DHT22;58876;51.994;4.472;2022-11-20T09:13:20;3.07;76.41
71175;DHT22;58876;51.994;4.472;2022-11-20T09:15:45;3.11;76.45
71175;DHT22;58876;51.994;4.472;2022-11-20T09:18:11;3.23;76.59
71175;DHT22;58876;51.994;4.472;2022-11-20T09:20:37;3.41;75.79
71175;DHT22;58876;51.994;4.472;2022-11-20T09:23:03;3.41;75.66
71175;DHT22;58876;51.994;4.472;2022-11-20T09:25:28;3.39;75.76
71175;DHT22;58876;51.994;4.472;2022-11-20T09:27:55;3.35;75.91
71175;DHT22;58876;51.994;4.472;2022-11-20T09:30:21;3.35;76.28
71175;DHT22;58876;51.994;4.472;2022-11-20T09:32:46;3.31;76.40
71175;DHT22;58876;51.994;4.472;2022-11-20T09:35:11;3.28;76.93
71175;DHT22;58876;51.994;4.472;2022-11-20T09:37:37;3.42;76.98
71175;DHT22;58876;51.994;4.472;2022-11-20T09:40:03;3.39;76.76
71175;DHT22;58876;51.994;4.472;2022-11-20T09:50:49;3.51;77.28
71175;DHT22;58876;51.994;4.472;2022-11-20T09:55:51;3.57;77.57
71175;DHT22;58876;51.994;4.472;2022-11-20T09:58:41;3.59;77.53
71175;DHT22;58876;51.994;4.472;2022-11-20T10:06:18;3.85;77.34
71175;DHT22;58876;51.994;4.472;2022-11-20T10:09:20;3.95;77.15
71175;DHT22;58876;51.994;4.472;2022-11-20T10:14:31;4.05;76.19
71175;DHT22;58876;51.994;4.472;2022-11-20T10:22:59;4.14;77.03
71175;DHT22;58876;51.994;4.472;2022-11-20T10:25:42;4.17;77.39
71175;DHT22;58876;51.994;4.472;2022-11-20T10:31:08;4.09;77.96
71175;DHT22;58876;51.994;4.472;2022-11-20T10:33:41;4.14;78.18
71175;DHT22;58876;51.994;4.472;2022-11-20T10:36:25;4.21;78.57
71175;DHT22;58876;51.994;4.472;2022-11-20T10:39:00;4.27;78.40
71175;DHT22;58876;51.994;4.472;2022-11-20T10:41:32;4.32;78.90
71175;DHT22;58876;51.994;4.472;2022-11-20T10:44:16;4.41;78.80
71175;DHT22;58876;51.994;4.472;2022-11-20T10:47:01;4.61;78.56
71175;DHT22;58876;51.994;4.472;2022-11-20T10:49:27;4.68;78.31
71175;DHT22;58876;51.994;4.472;2022-11-20T10:54:49;4.68;78.97
71175;DHT22;58876;51.994;4.472;2022-11-20T11:00:11;4.78;78.95
71175;DHT22;58876;51.994;4.472;2022-11-20T11:02:46;4.69;78.82
71175;DHT22;58876;51.994;4.472;2022-11-20T11:07:54;4.53;80.03
71175;DHT22;58876;51.994;4.472;2022-11-20T11:10:24;4.44;79.90
71175;DHT22;58876;51.994;4.472;2022-11-20T11:12:51;4.38;80.45
71175;DHT22;58876;51.994;4.472;2022-11-20T11:15:39;4.40;80.38
71175;DHT22;58876;51.994;4.472;2022-11-20T11:18:11;4.57;80.42
71175;DHT22;58876;51.994;4.472;2022-11-20T11:20:37;4.81;80.21
71175;DHT22;58876;51.994;4.472;2022-11-20T11:23:03;4.86;79.68
71175;DHT22;58876;51.994;4.472;2022-11-20T11:25:35;4.78;79.33
71175;DHT22;58876;51.994;4.472;2022-11-20T11:28:20;4.74;80.10
71175;DHT22;58876;51.994;4.472;2022-11-20T11:30:46;4.81;79.80
71175;DHT22;58876;51.994;4.472;2022-11-20T11:33:31;4.86;79.85
71175;DHT22;58876;51.994;4.472;2022-11-20T11:36:04;4.95;79.51
71175;DHT22;58876;51.994;4.472;2022-11-20T11:38:41;5.04;79.43
71175;DHT22;58876;51.994;4.472;2022-11-20T11:41:20;4.92;79.33
71175;DHT22;58876;51.994;4.472;2022-11-20T11:43:56;5.06;79.24
71175;DHT22;58876;51.994;4.472;2022-11-20T11:46:52;5.20;78.96
71175;DHT22;58876;51.994;4.472;2022-11-20T11:49:19;5.26;78.88
71175;DHT22;58876;51.994;4.472;2022-11-20T11:52:05;5.29;78.69
71175;DHT22;58876;51.994;4.472;2022-11-20T11:57:26;5.35;78.95
71175;DHT22;58876;51.994;4.472;2022-11-20T12:00:13;5.33;79.17
71175;DHT22;58876;51.994;4.472;2022-11-20T12:05:45;5.48;79.28
71175;DHT22;58876;51.994;4.472;2022-11-20T12:08:25;5.40;79.53
71175;DHT22;58876;51.994;4.472;2022-11-20T12:11:29;5.35;79.62
71175;DHT22;58876;51.994;4.472;2022-11-20T12:16:40;5.40;80.12
71175;DHT22;58876;51.994;4.472;2022-11-20T12:19:14;5.33;80.11
71175;DHT22;58876;51.994;4.472;2022-11-20T12:24:32;5.29;80.45
71175;DHT22;58876;51.994;4.472;2022-11-20T12:30:17;5.30;80.84
71175;DHT22;58876;51.994;4.472;2022-11-20T12:33:08;5.40;80.59
71175;DHT22;58876;51.994;4.472;2022-11-20T12:35:57;5.39;80.34
71175;DHT22;58876;51.994;4.472;2022-11-20T12:44:24;5.26;81.11
71175;DHT22;58876;51.994;4.472;2022-11-20T12:47:46;5.33;81.11
71175;DHT22;58876;51.994;4.472;2022-11-20T12:50:21;5.37;80.93
71175;DHT22;58876;51.994;4.472;2022-11-20T12:53:05;5.40;80.93
71175;DHT22;58876;51.994;4.472;2022-11-20T12:58:37;5.44;80.94
71175;DHT22;58876;51.994;4.472;2022-11-20T13:06:36;5.50;81.14
71175;DHT22;58876;51.994;4.472;2022-11-20T13:09:02;5.54;81.37
71175;DHT22;58876;51.994;4.472;2022-11-20T13:11:55;5.50;81.44
71175;DHT22;58876;51.994;4.472;2022-11-20T13:20:20;5.48;82.21
71175;DHT22;58876;51.994;4.472;2022-11-20T13:22:51;5.60;82.31
71175;DHT22;58876;51.994;4.472;2022-11-20T13:27:57;5.56;82.39
71175;DHT22;58876;51.994;4.472;2022-11-20T13:30:25;5.56;82.22
71175;DHT22;58876;51.994;4.472;2022-11-20T13:33:25;5.53;82.50
71175;DHT22;58876;51.994;4.472;2022-11-20T13:36:02;5.44;82.97
71175;DHT22;58876;51.994;4.472;2022-11-20T13:38:39;5.47;83.39
71175;DHT22;58876;51.994;4.472;2022-11-20T13:41:08;5.47;83.41
71175;DHT22;58876;51.994;4.472;2022-11-20T13:43:52;5.30;83.94
71175;DHT22;58876;51.994;4.472;2022-11-20T13:46:19;5.35;83.94
71175;DHT22;58876;51.994;4.472;2022-11-20T13:48:51;5.30;84.37
71175;DHT22;58876;51.994;4.472;2022-11-20T13:51:43;5.25;84.39
71175;DHT22;58876;51.994;4.472;2022-11-20T13:57:36;5.19;85.09
71175;DHT22;58876;51.994;4.472;2022-11-20T14:00:22;5.20;85.44
71175;DHT22;58876;51.994;4.472;2022-11-20T14:05:25;5.13;85.19
71175;DHT22;58876;51.994;4.472;2022-11-20T14:07:53;5.13;85.63
71175;DHT22;58876;51.994;4.472;2022-11-20T14:10:22;5.09;85.74
71175;DHT22;58876;51.994;4.472;2022-11-20T14:12:47;5.06;85.90
71175;DHT22;58876;51.994;4.472;2022-11-20T14:15:31;5.04;86.05
71175;DHT22;58876;51.994;4.472;2022-11-20T14:17:58;5.09;86.01
71175;DHT22;58876;51.994;4.472;2022-11-20T14:20:27;5.09;86.19
71175;DHT22;58876;51.994;4.472;2022-11-20T14:22:54;5.09;86.26
71175;DHT22;58876;51.994;4.472;2022-11-20T14:25:25;5.08;86.04
71175;DHT22;58876;51.994;4.472;2022-11-20T14:28:01;5.12;86.25
71175;DHT22;58876;51.994;4.472;2022-11-20T14:30:43;5.13;86.34
71175;DHT22;58876;51.994;4.472;2022-11-20T14:33:12;5.15;86.29
71175;DHT22;58876;51.994;4.472;2022-11-20T14:35:49;5.11;86.41
71175;DHT22;58876;51.994;4.472;2022-11-20T14:38:22;5.13;86.52
71175;DHT22;58876;51.994;4.472;2022-11-20T14:40:49;5.22;86.40
71175;DHT22;58876;51.994;4.472;2022-11-20T14:43:24;5.22;86.46
71175;DHT22;58876;51.994;4.472;2022-11-20T14:46:03;5.33;86.21
71175;DHT22;58876;51.994;4.472;2022-11-20T14:48:38;5.18;86.25
71175;DHT22;58876;51.994;4.472;2022-11-20T14:51:10;5.18;86.40
71175;DHT22;58876;51.994;4.472;2022-11-20T14:53:35;5.20;86.54
71175;DHT22;58876;51.994;4.472;2022-11-20T14:56:02;5.19;86.79
71175;DHT22;58876;51.994;4.472;2022-11-20T14:58:31;5.18;86.74
71175;DHT22;58876;51.994;4.472;2022-11-20T15:01:03;5.30;86.87
71175;DHT22;58876;51.994;4.472;2022-11-20T15:03:57;5.32;86.63
71175;DHT22;58876;51.994;4.472;2022-11-20T15:06:28;5.32;86.59
71175;DHT22;58876;51.994;4.472;2022-11-20T15:08:54;5.30;86.62
71175;DHT22;58876;51.994;4.472;2022-11-20T15:11:28;5.27;86.84
71175;DHT22;58876;51.994;4.472;2022-11-20T15:13:54;5.27;87.32
71175;DHT22;58876;51.994;4.472;2022-11-20T15:16:23;5.27;86.94
71175;DHT22;58876;51.994;4.472;2022-11-20T15:18:49;5.26;86.98
71175;DHT22;58876;51.994;4.472;2022-11-20T15:21:17;5.29;86.93
71175;DHT22;58876;51.994;4.472;2022-11-20T15:23:44;5.33;87.12
71175;DHT22;58876;51.994;4.472;2022-11-20T15:26:12;5.40;87.01
71175;DHT22;58876;51.994;4.472;2022-11-20T15:28:43;5.42;86.96
71175;DHT22;58876;51.994;4.472;2022-11-20T15:31:15;5.42;86.93
71175;DHT22;58876;51.994;4.472;2022-11-20T15:33:41;5.47;86.87
71175;DHT22;58876;51.994;4.472;2022-11-20T15:36:08;5.44;86.72
71175;DHT22;58876;51.994;4.472;2022-11-20T15:38:33;5.47;86.82
71175;DHT22;58876;51.994;4.472;2022-11-20T15:40:59;5.48;86.85
71175;DHT22;58876;51.994;4.472;2022-11-20T15:43:24;5.44;86.84
71175;DHT22;58876;51.994;4.472;2022-11-20T15:45:53;5.54;86.87
71175;DHT22;58876;51.994;4.472;2022-11-20T15:48:23;5.54;86.72
71175;DHT22;58876;51.994;4.472;2022-11-20T15:53:41;5.56;86.66
71175;DHT22;58876;51.994;4.472;2022-11-20T15:56:13;5.63;86.57
71175;DHT22;58876;51.994;4.472;2022-11-20T15:58:40;5.70;86.33
71175;DHT22;58876;51.994;4.472;2022-11-20T16:01:10;5.71;85.96
71175;DHT22;58876;51.994;4.472;2022-11-20T16:03:36;5.75;86.00
71175;DHT22;58876;51.994;4.472;2022-11-20T16:06:02;5.73;86.13
71175;DHT22;58876;51.994;4.472;2022-11-20T16:08:27;5.73;85.94
71175;DHT22;58876;51.994;4.472;2022-11-20T16:10:53;5.66;85.55
71175;DHT22;58876;51.994;4.472;2022-11-20T16:13:18;5.53;86.02
71175;DHT22;58876;51.994;4.472;2022-11-20T16:16:09;5.53;86.04
71175;DHT22;58876;51.994;4.472;2022-11-20T16:18:37;5.57;86.12
71175;DHT22;58876;51.994;4.472;2022-11-20T16:21:02;5.57;85.88
71175;DHT22;58876;51.994;4.472;2022-11-20T16:23:28;5.60;85.89
71175;DHT22;58876;51.994;4.472;2022-11-20T16:25:54;5.53;86.09
71175;DHT22;58876;51.994;4.472;2022-11-20T16:28:19;5.48;86.15
71175;DHT22;58876;51.994;4.472;2022-11-20T16:30:46;5.44;86.13
71175;DHT22;58876;51.994;4.472;2022-11-20T16:33:14;5.30;86.05
71175;DHT22;58876;51.994;4.472;2022-11-20T16:35:40;5.39;86.53
71175;DHT22;58876;51.994;4.472;2022-11-20T16:38:05;5.50;86.06
71175;DHT22;58876;51.994;4.472;2022-11-20T16:40:31;5.44;85.99
71175;DHT22;58876;51.994;4.472;2022-11-20T16:42:56;5.43;86.46
71175;DHT22;58876;51.994;4.472;2022-11-20T16:45:23;5.47;86.24
71175;DHT22;58876;51.994;4.472;2022-11-20T16:47:48;5.20;86.58
71175;DHT22;58876;51.994;4.472;2022-11-20T16:50:14;5.32;86.57
71175;DHT22;58876;51.994;4.472;2022-11-20T16:52:39;5.30;86.50
71175;DHT22;58876;51.994;4.472;2022-11-20T16:55:05;5.40;86.43
71175;DHT22;58876;51.994;4.472;2022-11-20T16:57:31;5.48;86.06
71175;DHT22;58876;51.994;4.472;2022-11-20T16:59:59;5.47;86.24
71175;DHT22;58876;51.994;4.472;2022-11-20T17:02:25;5.54;86.16
71175;DHT22;58876;51.994;4.472;2022-11-20T17:04:53;5.48;85.95
71175;DHT22;58876;51.994;4.472;2022-11-20T17:07:19;5.57;86.13
71175;DHT22;58876;51.994;4.472;2022-11-20T17:09:44;5.46;86.06
71175;DHT22;58876;51.994;4.472;2022-11-20T17:12:10;5.32;86.51
71175;DHT22;58876;51.994;4.472;2022-11-20T17:14:35;5.39;86.63
71175;DHT22;58876;51.994;4.472;2022-11-20T17:17:01;5.37;86.75
71175;DHT22;58876;51.994;4.472;2022-11-20T17:19:26;5.47;86.77
71175;DHT22;58876;51.994;4.472;2022-11-20T17:21:52;5.58;86.66
71175;DHT22;58876;51.994;4.472;2022-11-20T17:24:17;5.63;86.30